Time;durP1;ratioP1;P1;durP2;ratioP2;P2;SDS_P1;SDS_P2;PMS_P1;PMS_P2;Temp;Humidity;BMP_temperature;BMP_pressure;BME280_temperature;BME280_humidity;BME280_pressure;Samples;Min_cycle;Max_cycle;Signal;HPM_P1;HPM_P2
2023/04/09 00:00:33;;;;;;;17.83;16.17;;;7.60;99.90;;;;;;4970704;28;20724;-69
2023/04/09 00:02:59;;;;;;;17.43;15.77;;;7.60;99.90;;;;;;4971058;28;20557;-68
2023/04/09 00:05:24;;;;;;;16.83;15.23;;;7.70;99.90;;;;;;4972216;28;20192;-69
2023/04/09 00:07:50;;;;;;;17.53;15.70;;;7.70;99.90;;;;;;4970943;28;20208;-69
2023/04/09 00:10:15;;;;;;;18.93;16.93;;;7.80;99.90;;;;;;4972264;28;20187;-69
2023/04/09 00:12:41;;;;;;;16.10;14.40;;;7.80;99.90;;;;;;4970418;28;20191;-69
2023/04/09 00:15:07;;;;;;;19.40;17.40;;;7.90;99.90;;;;;;4969538;28;20185;-69
2023/04/09 00:17:33;;;;;;;17.47;13.77;;;7.90;99.90;;;;;;4969420;28;20204;-69
2023/04/09 00:19:58;;;;;;;16.23;14.63;;;7.80;99.90;;;;;;4968267;28;20824;-69
2023/04/09 00:22:24;;;;;;;16.97;14.50;;;7.80;99.90;;;;;;4969579;28;20676;-69
2023/04/09 00:24:50;;;;;;;15.83;13.90;;;7.80;99.90;;;;;;4970347;28;20275;-69
2023/04/09 00:27:15;;;;;;;16.40;14.90;;;7.80;99.90;;;;;;4971065;28;20682;-69
2023/04/09 00:29:41;;;;;;;17.07;15.37;;;7.80;99.90;;;;;;4984508;28;20184;-69
2023/04/09 00:32:06;;;;;;;17.73;15.97;;;7.80;99.90;;;;;;4966886;28;20176;-69
2023/04/09 00:34:32;;;;;;;16.67;14.97;;;7.80;99.90;;;;;;4967654;28;20561;-69
2023/04/09 00:36:57;;;;;;;17.13;15.37;;;7.70;99.90;;;;;;4968553;28;20215;-70
2023/04/09 00:39:23;;;;;;;15.73;14.23;;;7.70;99.90;;;;;;4970474;28;20203;-69
2023/04/09 00:41:48;;;;;;;17.53;15.93;;;7.70;99.90;;;;;;4964713;28;20220;-69
2023/04/09 00:44:14;;;;;;;17.10;15.30;;;7.70;99.90;;;;;;4965558;28;20188;-70
2023/04/09 00:46:39;;;;;;;18.17;16.20;;;7.60;99.90;;;;;;4970706;28;20654;-69
2023/04/09 00:49:05;;;;;;;15.83;14.23;;;7.70;99.90;;;;;;4969592;28;20204;-69
2023/04/09 00:51:32;;;;;;;15.93;14.33;;;7.70;99.90;;;;;;4969942;28;20231;-69
2023/04/09 00:53:57;;;;;;;17.27;15.47;;;7.70;99.90;;;;;;4967323;28;21840;-69
2023/04/09 00:56:23;;;;;;;16.20;14.60;;;7.70;99.90;;;;;;4958040;28;20531;-69
2023/04/09 00:58:49;;;;;;;18.00;16.30;;;7.80;99.90;;;;;;4964146;28;20200;-69
2023/04/09 01:01:15;;;;;;;18.33;16.47;;;7.80;99.90;;;;;;4970632;28;20180;-69
2023/04/09 01:03:41;;;;;;;16.03;14.20;;;7.80;99.90;;;;;;4967926;28;20184;-69
2023/04/09 01:06:15;;;;;;;16.20;14.73;;;7.80;99.90;;;;;;4971444;28;20219;-69
2023/04/09 01:08:48;;;;;;;17.03;15.23;;;7.70;99.90;;;;;;4967608;28;20525;-69
2023/04/09 01:11:36;;;;;;;16.20;14.50;;;7.80;99.90;;;;;;4972811;28;20447;-69
2023/04/09 01:14:24;;;;;;;15.97;14.40;;;7.70;99.90;;;;;;4968944;28;20439;-68
2023/04/09 01:16:56;;;;;;;16.13;14.47;;;7.70;99.90;;;;;;4965057;28;20438;-69
2023/04/09 01:19:37;;;;;;;16.30;14.73;;;7.70;99.90;;;;;;4968715;28;20823;-69
2023/04/09 01:22:04;;;;;;;16.13;14.60;;;7.70;99.90;;;;;;4968129;28;20440;-69
2023/04/09 01:24:59;;;;;;;16.93;14.70;;;7.70;99.90;;;;;;4969848;28;20467;-69
2023/04/09 01:27:36;;;;;;;23.00;14.80;;;7.70;99.90;;;;;;4969847;28;20991;-69
2023/04/09 01:30:03;;;;;;;16.53;14.30;;;7.70;99.90;;;;;;4970017;28;20447;-69
2023/04/09 01:32:32;;;;;;;17.30;15.60;;;7.70;99.90;;;;;;4971625;28;20435;-69
2023/04/09 01:34:58;;;;;;;16.10;14.37;;;7.70;99.90;;;;;;4968844;28;20447;-69
2023/04/09 01:37:25;;;;;;;16.37;14.73;;;7.80;99.90;;;;;;4968268;28;20522;-69
2023/04/09 01:39:51;;;;;;;16.43;14.80;;;7.80;99.90;;;;;;4967069;28;21008;-68
2023/04/09 01:42:17;;;;;;;16.20;14.60;;;7.70;99.90;;;;;;4969189;28;20521;-69
2023/04/09 01:44:45;;;;;;;17.80;16.00;;;7.70;99.90;;;;;;4971599;28;20536;-69
2023/04/09 01:47:11;;;;;;;15.67;14.17;;;7.60;99.90;;;;;;4973724;28;20939;-69
2023/04/09 01:49:38;;;;;;;17.90;15.20;;;7.60;99.90;;;;;;4972402;28;20471;-69
2023/04/09 01:52:04;;;;;;;16.57;14.87;;;7.70;99.90;;;;;;4973316;28;20474;-69
2023/04/09 01:54:29;;;;;;;16.20;14.70;;;7.60;99.90;;;;;;4974765;28;20965;-69
2023/04/09 01:56:57;;;;;;;15.77;14.20;;;7.60;99.90;;;;;;4970150;28;20205;-69
2023/04/09 01:59:22;;;;;;;16.73;15.13;;;7.60;99.90;;;;;;4971831;28;20234;-69
2023/04/09 02:02:01;;;;;;;17.80;15.90;;;7.50;99.90;;;;;;4971944;28;20853;-69
2023/04/09 02:04:39;;;;;;;17.07;15.27;;;7.50;99.90;;;;;;4972825;28;20184;-69
2023/04/09 02:07:46;;;;;;;16.17;13.37;;;7.50;99.90;;;;;;4972983;28;20482;-69
2023/04/09 02:10:12;;;;;;;15.37;13.80;;;7.60;99.90;;;;;;4952685;29;20446;-69
2023/04/09 02:12:41;;;;;;;16.60;14.90;;;7.60;99.90;;;;;;4951517;29;20442;-69
2023/04/09 02:15:08;;;;;;;17.90;16.10;;;7.60;99.90;;;;;;4965275;28;20445;-69
2023/04/09 02:17:34;;;;;;;16.00;14.53;;;7.60;99.90;;;;;;4972603;28;20964;-69
2023/04/09 02:19:59;;;;;;;16.13;14.37;;;7.60;99.90;;;;;;4970841;28;20449;-69
2023/04/09 02:22:25;;;;;;;15.53;14.10;;;7.60;99.90;;;;;;4974805;28;20936;-69
2023/04/09 02:24:50;;;;;;;16.30;14.60;;;7.60;99.90;;;;;;4973696;28;20194;-69
2023/04/09 02:27:16;;;;;;;15.90;14.30;;;7.60;99.90;;;;;;4973392;28;20273;-69
2023/04/09 02:29:42;;;;;;;16.53;15.03;;;7.60;99.90;;;;;;4971178;28;20188;-69
2023/04/09 02:32:07;;;;;;;18.40;16.10;;;7.50;99.90;;;;;;4974265;28;20183;-69
2023/04/09 02:34:33;;;;;;;16.20;14.60;;;7.50;99.90;;;;;;4972953;28;20431;-69
2023/04/09 02:36:59;;;;;;;16.87;15.10;;;7.50;99.90;;;;;;4972558;28;20254;-69
2023/04/09 02:39:24;;;;;;;15.40;14.03;;;7.60;99.90;;;;;;4970352;28;20199;-69
2023/04/09 02:41:51;;;;;;;15.17;13.57;;;7.50;99.90;;;;;;4970961;28;20188;-69
2023/04/09 02:44:16;;;;;;;16.90;14.90;;;7.50;99.90;;;;;;4972625;28;20187;-69
2023/04/09 02:46:43;;;;;;;17.27;15.37;;;7.50;99.90;;;;;;4972130;28;20447;-69
2023/04/09 02:49:08;;;;;;;17.00;15.20;;;7.50;99.90;;;;;;4970564;28;20180;-69
2023/04/09 02:51:34;;;;;;;16.93;15.33;;;7.50;99.90;;;;;;4972675;28;20443;-69
2023/04/09 02:54:00;;;;;;;16.83;15.03;;;7.50;99.90;;;;;;4971616;28;20177;-69
2023/04/09 02:56:26;;;;;;;15.80;14.00;;;7.40;99.90;;;;;;4970243;28;20440;-70
2023/04/09 02:58:52;;;;;;;18.23;16.33;;;7.40;99.90;;;;;;4970307;28;20468;-69
2023/04/09 03:01:19;;;;;;;18.63;16.83;;;7.40;99.90;;;;;;4969982;28;20176;-69
2023/04/09 03:03:44;;;;;;;19.07;17.07;;;7.30;99.90;;;;;;4970461;28;20880;-70
2023/04/09 03:06:10;;;;;;;15.87;14.40;;;7.40;99.90;;;;;;4971237;28;20518;-69
2023/04/09 03:08:35;;;;;;;16.50;14.90;;;7.40;99.90;;;;;;4968582;28;20216;-69
2023/04/09 03:11:01;;;;;;;16.90;14.93;;;7.40;99.90;;;;;;4969715;28;20184;-69
2023/04/09 03:13:27;;;;;;;16.23;14.67;;;7.30;99.90;;;;;;4964737;28;20188;-69
2023/04/09 03:15:53;;;;;;;16.93;15.17;;;7.20;99.90;;;;;;4970511;28;20560;-69
2023/04/09 03:18:19;;;;;;;18.97;16.97;;;7.10;99.90;;;;;;4969271;28;20295;-69
2023/04/09 03:20:44;;;;;;;17.97;16.10;;;7.10;99.90;;;;;;4966955;28;20220;-69
2023/04/09 03:23:10;;;;;;;18.53;16.40;;;7.00;99.90;;;;;;4968937;28;20467;-69
2023/04/09 03:25:36;;;;;;;15.40;13.57;;;7.00;99.90;;;;;;4969432;28;20180;-70
2023/04/09 03:28:02;;;;;;;15.80;14.20;;;7.00;99.90;;;;;;4969223;28;20215;-69
2023/04/09 03:30:27;;;;;;;18.03;16.10;;;7.00;99.90;;;;;;4965681;28;20427;-69
2023/04/09 03:32:53;;;;;;;16.97;15.17;;;7.00;99.90;;;;;;4966972;28;20643;-69
2023/04/09 03:35:19;;;;;;;16.10;14.50;;;7.00;99.90;;;;;;4968657;28;20188;-69
2023/04/09 03:37:44;;;;;;;16.10;14.60;;;7.00;99.90;;;;;;4968978;28;20219;-69
2023/04/09 03:40:10;;;;;;;16.43;14.60;;;7.00;99.90;;;;;;4967709;28;20467;-68
2023/04/09 03:42:36;;;;;;;15.83;14.17;;;7.10;99.90;;;;;;4966474;28;20184;-69
2023/04/09 03:45:03;;;;;;;16.97;15.17;;;7.10;99.90;;;;;;4964572;28;20443;-69
2023/04/09 03:47:28;;;;;;;17.80;16.00;;;7.00;99.90;;;;;;4966099;28;20217;-69
2023/04/09 03:49:54;;;;;;;16.57;14.80;;;7.10;99.90;;;;;;4966195;28;20535;-69
2023/04/09 03:52:19;;;;;;;16.07;14.57;;;7.00;99.90;;;;;;4972167;28;20191;-69
2023/04/09 03:54:45;;;;;;;18.13;15.17;;;7.00;99.90;;;;;;4971708;28;20638;-69
2023/04/09 03:57:10;;;;;;;17.80;15.90;;;7.00;99.90;;;;;;4971081;28;20204;-69
2023/04/09 03:59:36;;;;;;;15.30;13.77;;;7.00;99.90;;;;;;4965851;28;20184;-69
2023/04/09 04:02:01;;;;;;;17.73;15.77;;;7.10;99.90;;;;;;4967270;28;20180;-69
2023/04/09 04:04:27;;;;;;;16.97;14.93;;;7.10;99.90;;;;;;4966213;28;20191;-69
2023/04/09 04:06:52;;;;;;;17.90;16.00;;;7.10;99.90;;;;;;4969367;28;20219;-69
2023/04/09 04:09:18;;;;;;;22.30;17.00;;;7.10;99.90;;;;;;4968176;28;20573;-69
2023/04/09 04:11:43;;;;;;;16.67;14.97;;;7.10;99.90;;;;;;4972557;28;20180;-69
2023/04/09 04:14:09;;;;;;;16.27;14.63;;;7.10;99.90;;;;;;4971642;28;20180;-69
2023/04/09 04:16:34;;;;;;;20.03;15.03;;;7.10;99.90;;;;;;4970865;28;20199;-69
2023/04/09 04:19:00;;;;;;;15.53;13.93;;;7.00;99.90;;;;;;4967294;28;20209;-69
2023/04/09 04:21:26;;;;;;;15.70;14.10;;;7.00;99.90;;;;;;4970212;28;20608;-69
2023/04/09 04:23:51;;;;;;;15.87;13.90;;;7.00;99.90;;;;;;4969836;28;20184;-69
2023/04/09 04:26:17;;;;;;;16.67;14.40;;;7.00;99.90;;;;;;4969551;28;20563;-69
2023/04/09 04:28:43;;;;;;;17.10;15.30;;;7.00;99.90;;;;;;4965784;28;20217;-69
2023/04/09 04:31:10;;;;;;;18.37;14.60;;;7.00;99.90;;;;;;4967146;28;20499;-69
2023/04/09 04:33:36;;;;;;;15.67;14.07;;;7.00;99.90;;;;;;4971447;28;20442;-69
2023/04/09 04:36:06;;;;;;;15.77;14.17;;;6.90;99.90;;;;;;4966711;28;20443;-69
2023/04/09 04:38:33;;;;;;;15.73;14.13;;;6.80;99.90;;;;;;4971106;28;20526;-69
2023/04/09 04:40:58;;;;;;;18.47;16.67;;;6.80;99.90;;;;;;4963597;28;20455;-69
2023/04/09 04:43:24;;;;;;;16.77;15.10;;;6.80;99.90;;;;;;4964401;28;20953;-69
2023/04/09 04:45:50;;;;;;;15.23;13.50;;;6.80;99.90;;;;;;4966325;28;20176;-69
2023/04/09 04:48:15;;;;;;;18.33;15.63;;;6.70;99.90;;;;;;4967903;28;20685;-69
2023/04/09 04:50:40;;;;;;;17.80;13.80;;;6.80;99.90;;;;;;4966105;28;20603;-69
2023/04/09 04:53:06;;;;;;;18.60;16.60;;;6.70;99.90;;;;;;4968635;28;20176;-69
2023/04/09 04:55:35;;;;;;;18.90;15.97;;;6.70;99.90;;;;;;4971139;28;20199;-69
2023/04/09 04:58:00;;;;;;;17.60;15.90;;;6.80;99.90;;;;;;4960024;28;20232;-69
2023/04/09 05:00:26;;;;;;;16.70;15.00;;;6.80;99.90;;;;;;4963814;28;20451;-69
2023/04/09 05:02:51;;;;;;;17.50;15.63;;;6.90;99.90;;;;;;4968448;28;20221;-70
2023/04/09 05:05:17;;;;;;;16.53;14.93;;;6.90;99.90;;;;;;4970455;28;20267;-69
2023/04/09 05:07:42;;;;;;;16.00;14.23;;;6.90;99.90;;;;;;4971748;28;20200;-69
2023/04/09 05:10:08;;;;;;;15.90;14.20;;;6.80;99.90;;;;;;4969596;28;20168;-69
2023/04/09 05:12:34;;;;;;;21.37;14.70;;;6.80;99.90;;;;;;4968509;28;20196;-70
2023/04/09 05:14:59;;;;;;;19.07;15.77;;;6.80;99.90;;;;;;4971819;28;20440;-70
2023/04/09 05:17:25;;;;;;;16.40;14.70;;;6.80;99.90;;;;;;4964531;28;20267;-69
2023/04/09 05:19:52;;;;;;;17.10;15.00;;;6.90;99.90;;;;;;4967710;28;20201;-69
2023/04/09 05:22:17;;;;;;;17.03;15.27;;;6.90;99.90;;;;;;4962599;28;20217;-69
2023/04/09 05:24:43;;;;;;;16.37;14.87;;;6.90;99.90;;;;;;4965413;28;20482;-69
2023/04/09 05:27:08;;;;;;;19.10;16.20;;;7.00;99.90;;;;;;4965024;28;20204;-69
2023/04/09 05:29:34;;;;;;;18.30;14.70;;;7.10;99.90;;;;;;4963151;28;20280;-70
2023/04/09 05:32:00;;;;;;;16.60;14.90;;;7.20;99.90;;;;;;4961852;28;20881;-69
2023/04/09 05:34:25;;;;;;;16.93;15.20;;;7.20;99.90;;;;;;4967758;28;20184;-69
2023/04/09 05:36:51;;;;;;;16.40;14.80;;;7.30;99.90;;;;;;4970678;28;20699;-69
2023/04/09 05:39:17;;;;;;;16.93;15.17;;;7.30;99.90;;;;;;4971010;28;20813;-69
2023/04/09 05:41:43;;;;;;;15.90;14.20;;;7.20;99.90;;;;;;4972033;28;20447;-70
2023/04/09 05:44:10;;;;;;;17.87;16.03;;;7.10;99.90;;;;;;4972740;28;20192;-69
2023/04/09 05:46:35;;;;;;;18.73;15.10;;;7.10;99.90;;;;;;4971629;28;20507;-69
2023/04/09 05:49:01;;;;;;;16.70;15.00;;;7.20;99.90;;;;;;4971350;28;20853;-69
2023/04/09 05:51:26;;;;;;;17.80;15.20;;;7.20;99.90;;;;;;4965649;28;20704;-69
2023/04/09 05:53:52;;;;;;;16.87;14.73;;;7.30;99.90;;;;;;4962858;28;20184;-69
2023/04/09 05:56:18;;;;;;;17.40;15.67;;;7.40;99.90;;;;;;4970422;28;20183;-69
2023/04/09 05:58:43;;;;;;;17.23;15.43;;;7.40;99.90;;;;;;4969363;28;20467;-69
2023/04/09 06:01:09;;;;;;;16.37;14.67;;;7.60;99.90;;;;;;4968708;28;20187;-69
2023/04/09 06:03:35;;;;;;;16.50;14.90;;;7.70;99.90;;;;;;4970494;28;20670;-69
2023/04/09 06:06:00;;;;;;;17.87;16.03;;;7.80;99.90;;;;;;4967697;28;20185;-69
2023/04/09 06:08:26;;;;;;;17.80;15.83;;;8.10;99.90;;;;;;4970506;28;20212;-69
2023/04/09 06:10:51;;;;;;;17.87;15.77;;;8.40;99.90;;;;;;4968413;28;20676;-69
2023/04/09 06:13:17;;;;;;;18.60;16.63;;;8.70;99.90;;;;;;4960460;28;20177;-69
2023/04/09 06:15:42;;;;;;;18.23;16.50;;;9.10;99.90;;;;;;4969725;28;20176;-69
2023/04/09 06:18:08;;;;;;;15.40;13.90;;;9.30;99.90;;;;;;4970227;28;20212;-69
2023/04/09 06:20:33;;;;;;;17.83;15.93;;;9.50;99.90;;;;;;4969991;28;20208;-69
2023/04/09 06:22:59;;;;;;;18.77;15.80;;;9.60;99.90;;;;;;4968294;28;20574;-70
2023/04/09 06:25:24;;;;;;;17.03;15.33;;;9.60;99.90;;;;;;4967473;28;20188;-69
2023/04/09 06:27:50;;;;;;;18.87;16.57;;;9.60;99.90;;;;;;4964038;28;20282;-69
2023/04/09 06:30:15;;;;;;;16.70;14.97;;;9.60;99.90;;;;;;4971067;28;20181;-69
2023/04/09 06:32:41;;;;;;;16.00;14.30;;;9.70;99.90;;;;;;4970979;28;20208;-69
2023/04/09 06:35:07;;;;;;;16.70;15.20;;;9.80;99.90;;;;;;4971226;28;20176;-69
2023/04/09 06:37:33;;;;;;;17.30;15.53;;;9.90;99.90;;;;;;4973313;28;20222;-69
2023/04/09 06:39:58;;;;;;;15.77;13.47;;;10.00;99.90;;;;;;4973441;28;20451;-69
2023/04/09 06:42:25;;;;;;;16.47;14.90;;;10.10;99.90;;;;;;4969986;28;20457;-69
2023/04/09 06:44:51;;;;;;;15.67;14.27;;;10.40;99.90;;;;;;4970506;28;20439;-69
2023/04/09 06:47:16;;;;;;;14.83;13.30;;;10.60;99.90;;;;;;4970240;28;20223;-69
2023/04/09 06:49:42;;;;;;;15.67;14.17;;;10.70;99.90;;;;;;4968530;28;20203;-69
2023/04/09 06:52:07;;;;;;;17.67;15.83;;;10.90;99.90;;;;;;4969236;28;20188;-69
2023/04/09 06:54:33;;;;;;;15.80;14.33;;;11.00;99.90;;;;;;4974239;28;20259;-69
2023/04/09 06:56:58;;;;;;;15.60;14.00;;;11.10;99.90;;;;;;4969390;28;20204;-69
2023/04/09 06:59:24;;;;;;;14.10;12.80;;;10.90;99.90;;;;;;4973432;28;20199;-69
2023/04/09 07:01:49;;;;;;;14.83;13.40;;;10.90;99.90;;;;;;4971862;28;20268;-69
2023/04/09 07:04:15;;;;;;;15.40;13.97;;;11.00;99.90;;;;;;4972964;28;20179;-69
2023/04/09 07:06:40;;;;;;;14.87;13.37;;;11.20;99.90;;;;;;4972800;28;20180;-69
2023/04/09 07:09:06;;;;;;;14.67;13.17;;;11.40;99.90;;;;;;4971983;28;20580;-69
2023/04/09 07:11:31;;;;;;;14.27;12.83;;;11.70;99.90;;;;;;4971834;28;20235;-69
2023/04/09 07:13:59;;;;;;;14.93;12.83;;;11.70;99.90;;;;;;4971085;28;20181;-69
2023/04/09 07:16:24;;;;;;;14.57;13.17;;;11.70;99.90;;;;;;4971546;28;20533;-69
2023/04/09 07:18:50;;;;;;;15.00;13.40;;;11.80;99.90;;;;;;4971623;28;20462;-69
2023/04/09 07:21:15;;;;;;;13.70;12.30;;;11.90;99.90;;;;;;4972247;28;20662;-69
2023/04/09 07:23:41;;;;;;;14.87;13.37;;;11.80;99.90;;;;;;4971469;28;20183;-69
2023/04/09 07:26:07;;;;;;;13.33;12.03;;;11.90;99.90;;;;;;4969338;28;20196;-68
2023/04/09 07:28:32;;;;;;;14.03;12.70;;;11.90;99.90;;;;;;4970051;28;20258;-69
2023/04/09 07:31:01;;;;;;;12.07;10.87;;;11.90;99.90;;;;;;4970451;28;20176;-68
2023/04/09 07:33:27;;;;;;;12.53;11.23;;;11.80;99.90;;;;;;4969951;28;20183;-69
2023/04/09 07:35:52;;;;;;;10.27;9.27;;;11.80;99.90;;;;;;4967976;28;20977;-69
2023/04/09 07:38:18;;;;;;;11.27;10.23;;;11.90;99.90;;;;;;4971936;28;20230;-69
2023/04/09 07:40:43;;;;;;;10.70;9.70;;;12.00;99.90;;;;;;4973197;28;20682;-69
2023/04/09 07:43:09;;;;;;;9.93;8.93;;;12.10;99.90;;;;;;4972352;28;20566;-69
2023/04/09 07:45:34;;;;;;;10.73;9.73;;;12.10;99.90;;;;;;4969731;28;20180;-69
2023/04/09 07:48:00;;;;;;;10.37;9.37;;;11.80;99.90;;;;;;4968758;28;20212;-69
2023/04/09 07:50:26;;;;;;;11.40;10.30;;;12.10;99.90;;;;;;4972663;28;20172;-69
2023/04/09 07:52:51;;;;;;;12.23;11.03;;;12.30;99.90;;;;;;4972931;28;20208;-69
2023/04/09 07:55:17;;;;;;;18.37;10.60;;;12.40;99.90;;;;;;4973285;28;20198;-69
2023/04/09 07:57:44;;;;;;;9.73;8.67;;;12.60;99.90;;;;;;4963553;28;20208;-68
2023/04/09 08:00:10;;;;;;;10.27;9.27;;;12.80;99.90;;;;;;4972156;28;20443;-68
2023/04/09 08:02:35;;;;;;;9.67;8.77;;;12.70;99.90;;;;;;4971526;28;20432;-69
2023/04/09 08:05:01;;;;;;;10.10;9.20;;;12.60;99.90;;;;;;4972296;28;20442;-69
2023/04/09 08:07:27;;;;;;;9.40;8.40;;;12.70;99.90;;;;;;4965157;28;20212;-69
2023/04/09 08:09:52;;;;;;;9.13;8.33;;;12.70;99.90;;;;;;4965265;28;20176;-69
2023/04/09 08:12:18;;;;;;;9.07;8.27;;;12.60;99.90;;;;;;4973429;28;20195;-68
2023/04/09 08:14:43;;;;;;;9.40;8.50;;;12.20;99.90;;;;;;4973500;28;20181;-69
2023/04/09 08:17:09;;;;;;;9.43;8.60;;;12.40;99.90;;;;;;4972759;28;20254;-69
2023/04/09 08:19:34;;;;;;;10.13;9.13;;;12.70;99.90;;;;;;4970288;28;20215;-69
2023/04/09 08:22:00;;;;;;;11.17;10.07;;;13.00;99.90;;;;;;4972667;28;20211;-69
2023/04/09 08:24:26;;;;;;;11.27;10.27;;;12.90;99.90;;;;;;4972107;28;20633;-69
2023/04/09 08:26:52;;;;;;;11.40;10.30;;;13.00;99.90;;;;;;4971892;28;20466;-69
2023/04/09 08:29:17;;;;;;;10.80;9.80;;;13.20;99.90;;;;;;4971790;28;20180;-68
2023/04/09 08:31:43;;;;;;;12.73;11.53;;;13.40;99.90;;;;;;4970063;28;20243;-68
2023/04/09 08:34:08;;;;;;;11.63;10.53;;;13.40;99.90;;;;;;4972237;28;20176;-68
2023/04/09 08:36:34;;;;;;;9.47;8.60;;;13.60;99.90;;;;;;4971400;28;20176;-68
2023/04/09 08:39:00;;;;;;;8.77;7.97;;;13.90;99.90;;;;;;4970904;28;20216;-68
2023/04/09 08:41:28;;;;;;;9.03;8.23;;;14.10;99.90;;;;;;4971118;28;20662;-68
2023/04/09 08:43:54;;;;;;;9.30;8.40;;;14.20;98.50;;;;;;4972342;28;20446;-68
2023/04/09 08:46:21;;;;;;;10.50;9.50;;;14.30;98.20;;;;;;4968855;28;20442;-68
2023/04/09 08:48:48;;;;;;;8.13;7.43;;;14.10;98.10;;;;;;4964726;28;20467;-68
2023/04/09 08:51:15;;;;;;;7.10;6.50;;;14.10;98.60;;;;;;4966725;28;20447;-68
2023/04/09 08:53:52;;;;;;;7.47;6.87;;;14.50;93.30;;;;;;4967081;28;20442;-68
2023/04/09 08:56:18;;;;;;;10.87;9.87;;;15.20;92.40;;;;;;4966100;28;20440;-69
2023/04/09 08:58:46;;;;;;;11.10;9.90;;;15.20;93.90;;;;;;4968666;28;20756;-68
2023/04/09 09:01:29;;;;;;;11.23;10.23;;;15.00;95.00;;;;;;4971133;28;20450;-69
2023/04/09 09:04:00;;;;;;;12.63;11.53;;;15.30;95.60;;;;;;4964100;28;20506;-69
2023/04/09 09:06:31;;;;;;;10.33;9.43;;;15.00;96.40;;;;;;4969444;28;20443;-68
2023/04/09 09:09:02;;;;;;;10.50;9.50;;;15.10;93.00;;;;;;4965449;28;20555;-68
2023/04/09 09:11:29;;;;;;;6.37;5.87;;;15.40;91.40;;;;;;4969092;28;20439;-68
2023/04/09 09:14:06;;;;;;;6.57;6.03;;;15.20;83.00;;;;;;4968945;28;20424;-68
2023/04/09 09:16:33;;;;;;;9.00;8.30;;;15.50;80.70;;;;;;4970572;28;20439;-68
2023/04/09 09:19:00;;;;;;;9.03;8.20;;;16.00;83.70;;;;;;4967517;28;20574;-68
2023/04/09 09:21:27;;;;;;;9.57;8.57;;;16.00;83.40;;;;;;4966459;28;20453;-68
2023/04/09 09:23:53;;;;;;;9.67;8.87;;;16.10;86.50;;;;;;4967835;28;20447;-69
2023/04/09 09:26:26;;;;;;;10.07;9.17;;;16.70;79.90;;;;;;4969500;28;22379;-69
2023/04/09 09:28:51;;;;;;;9.10;8.30;;;15.90;80.40;;;;;;4964018;28;20462;-69
2023/04/09 09:31:19;;;;;;;7.03;6.40;;;14.60;83.10;;;;;;4967657;28;20448;-69
2023/04/09 09:33:45;;;;;;;7.57;6.90;;;14.50;80.40;;;;;;4964893;28;20646;-68
2023/04/09 09:36:11;;;;;;;7.80;7.10;;;14.70;81.60;;;;;;4969482;28;20439;-69
2023/04/09 09:38:50;;;;;;;7.40;6.80;;;15.20;82.20;;;;;;4966617;28;20482;-68
2023/04/09 09:41:16;;;;;;;8.43;7.77;;;15.30;78.80;;;;;;4971161;28;20191;-69
2023/04/09 09:43:42;;;;;;;9.83;8.97;;;15.20;81.90;;;;;;4970562;28;20444;-69
2023/04/09 09:46:09;;;;;;;8.40;7.67;;;15.10;82.20;;;;;;4967567;28;20485;-68
2023/04/09 09:48:35;;;;;;;8.77;8.07;;;16.10;79.70;;;;;;4963388;28;20221;-69
2023/04/09 09:51:06;;;;;;;10.63;9.73;;;17.60;76.30;;;;;;4964732;28;20439;-69
2023/04/09 09:53:35;;;;;;;9.03;8.30;;;18.30;73.40;;;;;;4964290;28;20555;-68
2023/04/09 09:56:02;;;;;;;9.73;9.00;;;17.60;72.90;;;;;;4972221;28;20493;-69
2023/04/09 09:58:36;;;;;;;9.53;8.73;;;16.90;75.60;;;;;;4967863;28;20964;-69
2023/04/09 10:01:11;;;;;;;9.20;8.30;;;16.60;78.20;;;;;;4971994;28;20525;-69
2023/04/09 10:03:38;;;;;;;9.20;8.40;;;16.40;79.30;;;;;;4969848;28;20442;-69
2023/04/09 10:06:05;;;;;;;9.77;8.97;;;17.80;73.30;;;;;;4968851;28;20439;-69
2023/04/09 10:08:33;;;;;;;8.13;7.30;;;18.30;69.60;;;;;;4973675;28;20996;-68
2023/04/09 10:11:00;;;;;;;9.50;8.60;;;19.00;70.70;;;;;;4974920;28;20945;-69
2023/04/09 10:13:40;;;;;;;11.77;10.57;;;19.20;66.30;;;;;;4974797;28;20443;-69
2023/04/09 10:16:07;;;;;;;10.63;9.73;;;17.90;67.30;;;;;;4974446;28;20441;-69
2023/04/09 10:18:34;;;;;;;8.10;7.50;;;18.50;65.20;;;;;;4973987;28;20462;-69
2023/04/09 10:21:13;;;;;;;8.50;7.80;;;19.80;59.70;;;;;;4974042;28;20447;-68
2023/04/09 10:23:41;;;;;;;8.00;7.40;;;19.60;58.00;;;;;;4974794;28;20446;-69
2023/04/09 10:26:07;;;;;;;8.43;7.80;;;17.40;61.90;;;;;;4974295;28;20439;-69
2023/04/09 10:28:33;;;;;;;7.60;7.00;;;16.50;64.00;;;;;;4972826;28;20611;-69
2023/04/09 10:30:59;;;;;;;9.50;8.60;;;16.10;64.30;;;;;;4975243;28;20937;-68
2023/04/09 10:33:26;;;;;;;7.70;7.00;;;15.40;68.50;;;;;;4974876;28;20972;-68
2023/04/09 10:36:01;;;;;;;8.00;7.30;;;14.30;69.60;;;;;;4974891;28;20446;-68
2023/04/09 10:38:34;;;;;;;10.80;8.20;;;14.10;71.90;;;;;;4973260;28;20562;-68
2023/04/09 10:41:11;;;;;;;7.07;6.47;;;14.80;73.00;;;;;;4974421;28;20871;-68
2023/04/09 10:43:37;;;;;;;7.23;6.63;;;15.20;66.80;;;;;;4972826;28;20466;-68
2023/04/09 10:46:23;;;;;;;7.23;6.73;;;16.10;67.00;;;;;;4974490;28;20463;-69
2023/04/09 10:48:49;;;;;;;5.60;5.20;;;16.30;63.30;;;;;;4970378;28;20208;-68
2023/04/09 10:51:18;;;;;;;7.57;6.97;;;15.60;61.10;;;;;;4973843;28;20444;-69
2023/04/09 10:53:43;;;;;;;7.03;6.43;;;15.00;63.10;;;;;;4973914;28;20208;-68
2023/04/09 10:56:15;;;;;;;7.13;6.53;;;14.40;64.20;;;;;;4972571;28;20475;-68
2023/04/09 10:58:40;;;;;;;7.80;7.20;;;15.00;62.00;;;;;;4970697;28;20211;-69
2023/04/09 11:01:06;;;;;;;6.10;5.60;;;14.90;65.30;;;;;;4973483;28;20941;-68
2023/04/09 11:03:37;;;;;;;6.50;5.97;;;14.80;64.20;;;;;;4973489;28;20195;-68
2023/04/09 11:06:09;;;;;;;5.83;5.33;;;14.60;63.60;;;;;;4972718;28;20180;-69
2023/04/09 11:08:36;;;;;;;7.30;6.60;;;14.60;65.20;;;;;;4972409;28;20467;-68
2023/04/09 11:11:03;;;;;;;7.17;6.47;;;14.90;64.50;;;;;;4972327;28;20454;-68
2023/04/09 11:13:30;;;;;;;7.73;7.10;;;16.10;63.20;;;;;;4972289;28;20444;-68
2023/04/09 11:15:57;;;;;;;6.40;5.90;;;16.00;64.10;;;;;;4962017;28;20440;-68
2023/04/09 11:18:27;;;;;;;6.33;5.83;;;15.50;61.90;;;;;;4968942;28;20513;-68
2023/04/09 11:20:58;;;;;;;6.30;5.80;;;15.00;61.40;;;;;;4968964;28;20448;-69
2023/04/09 11:23:24;;;;;;;7.07;6.40;;;15.20;61.90;;;;;;4971787;28;20436;-69
2023/04/09 11:25:50;;;;;;;6.97;6.40;;;15.30;61.40;;;;;;4966384;28;20498;-68
2023/04/09 11:28:16;;;;;;;7.03;6.30;;;16.30;61.10;;;;;;4972148;28;20932;-68
2023/04/09 11:30:42;;;;;;;7.80;7.20;;;16.10;60.90;;;;;;4973640;28;20455;-68
2023/04/09 11:33:08;;;;;;;6.27;5.77;;;15.90;62.20;;;;;;4970583;28;20459;-68
2023/04/09 11:35:35;;;;;;;7.50;6.90;;;15.60;62.60;;;;;;4971050;28;20431;-69
2023/04/09 11:38:05;;;;;;;6.87;6.27;;;15.40;62.80;;;;;;4970433;28;20475;-68
2023/04/09 11:40:31;;;;;;;7.37;6.77;;;15.70;63.60;;;;;;4972406;28;20486;-69
2023/04/09 11:42:56;;;;;;;7.00;6.50;;;17.60;59.90;;;;;;4967260;28;20958;-69
2023/04/09 11:45:27;;;;;;;8.10;7.50;;;20.00;56.20;;;;;;4969817;28;20268;-69
2023/04/09 11:47:53;;;;;;;7.53;6.93;;;20.30;53.00;;;;;;4964065;28;20211;-69
2023/04/09 11:50:19;;;;;;;8.27;7.63;;;19.90;54.20;;;;;;4971154;28;20502;-68
2023/04/09 11:52:45;;;;;;;8.70;7.90;;;19.60;55.10;;;;;;4967159;28;21013;-68
2023/04/09 11:55:21;;;;;;;6.90;6.40;;;19.10;55.30;;;;;;4966335;28;20441;-69
2023/04/09 11:57:46;;;;;;;8.13;7.53;;;19.50;55.60;;;;;;4961037;28;20290;-69
2023/04/09 12:00:16;;;;;;;8.27;7.57;;;19.60;54.60;;;;;;4968434;28;20534;-68
2023/04/09 12:02:47;;;;;;;7.93;7.33;;;19.70;54.60;;;;;;4966738;28;20275;-69
2023/04/09 12:05:24;;;;;;;7.03;6.50;;;20.70;51.60;;;;;;4966430;28;20905;-69
2023/04/09 12:07:51;;;;;;;8.03;7.33;;;21.40;50.90;;;;;;4970766;28;20498;-68
2023/04/09 12:10:16;;;;;;;8.67;7.97;;;20.80;50.60;;;;;;4972033;28;20443;-69
2023/04/09 12:12:44;;;;;;;7.33;6.83;;;22.80;50.40;;;;;;4971271;28;20862;-69
2023/04/09 12:15:22;;;;;;;7.77;7.17;;;25.20;45.40;;;;;;4964946;28;20177;-68
2023/04/09 12:17:49;;;;;;;7.77;7.07;;;22.50;42.50;;;;;;4962603;28;20456;-69
2023/04/09 12:20:42;;;;;;;8.13;7.53;;;22.90;43.40;;;;;;4961992;28;20571;-68
2023/04/09 12:23:09;;;;;;;8.27;7.67;;;23.60;42.10;;;;;;4967402;28;20439;-69
2023/04/09 12:25:38;;;;;;;7.17;6.67;;;22.90;42.00;;;;;;4966150;28;20443;-68
2023/04/09 12:28:04;;;;;;;7.80;7.20;;;22.00;43.60;;;;;;4970067;28;20495;-68
2023/04/09 12:30:31;;;;;;;8.23;7.63;;;20.80;45.00;;;;;;4971836;28;20443;-69
2023/04/09 12:32:57;;;;;;;8.50;7.80;;;19.40;46.50;;;;;;4968688;28;20451;-69
2023/04/09 12:35:23;;;;;;;7.70;7.10;;;18.50;48.00;;;;;;4969588;28;20489;-68
2023/04/09 12:37:49;;;;;;;7.60;7.10;;;18.00;49.90;;;;;;4971715;28;20474;-68